createdAt,value
2018-08-04T00:00:10.782Z,25.40
2018-08-04T00:02:38.534Z,25.40
2018-08-04T00:05:06.994Z,25.30
2018-08-04T00:07:34.422Z,25.20
2018-08-04T00:10:01.942Z,25.20
2018-08-04T00:12:29.366Z,25.20
2018-08-04T00:14:56.759Z,25.20
2018-08-04T00:17:24.192Z,25.30
2018-08-04T00:19:51.584Z,25.30
2018-08-04T00:22:18.990Z,25.30
2018-08-04T00:24:46.350Z,25.20
2018-08-04T00:27:13.773Z,25.30
2018-08-04T00:29:41.122Z,25.20
2018-08-04T00:32:08.494Z,25.20
2018-08-04T00:34:35.939Z,25.20
2018-08-04T00:37:03.406Z,25.10
2018-08-04T00:39:30.809Z,25.00
2018-08-04T00:41:58.211Z,25.00
2018-08-04T00:44:25.652Z,25.10
2018-08-04T00:46:53.101Z,25.10
2018-08-04T00:49:20.543Z,25.10
2018-08-04T00:51:47.920Z,25.10
2018-08-04T00:54:15.238Z,25.10
2018-08-04T00:56:42.622Z,25.00
2018-08-04T00:59:10.109Z,25.00
2018-08-04T01:01:37.509Z,25.00
2018-08-04T01:04:05.004Z,25.10
2018-08-04T01:06:32.355Z,25.00
2018-08-04T01:08:59.777Z,25.00
2018-08-04T01:11:27.189Z,24.90
2018-08-04T01:13:54.626Z,24.90
2018-08-04T01:16:22.001Z,24.80
2018-08-04T01:18:49.378Z,24.80
2018-08-04T01:21:16.897Z,24.80
2018-08-04T01:23:44.271Z,24.80
2018-08-04T01:26:11.653Z,24.80
2018-08-04T01:28:39.137Z,24.70
2018-08-04T01:31:06.616Z,24.70
2018-08-04T01:33:34.037Z,24.60
2018-08-04T01:36:01.433Z,24.60
2018-08-04T01:38:28.937Z,24.60
2018-08-04T01:40:56.328Z,24.50
2018-08-04T01:43:23.658Z,24.50
2018-08-04T01:45:51.102Z,24.50
2018-08-04T01:50:45.877Z,24.50
2018-08-04T01:53:13.273Z,24.50
2018-08-04T01:55:40.622Z,24.40
2018-08-04T01:58:07.981Z,24.50
2018-08-04T02:00:35.422Z,24.50
2018-08-04T02:03:02.873Z,24.50
2018-08-04T02:05:30.251Z,24.40
2018-08-04T02:07:57.648Z,24.40
2018-08-04T02:10:25.126Z,24.40
2018-08-04T02:12:52.528Z,24.40
2018-08-04T02:15:21.462Z,24.40
2018-08-04T02:17:48.840Z,24.40
2018-08-04T02:20:16.302Z,24.30
2018-08-04T02:22:43.684Z,24.20
2018-08-04T02:25:11.042Z,24.10
2018-08-04T02:27:38.474Z,24.00
2018-08-04T02:30:05.859Z,23.90
2018-08-04T02:32:33.364Z,23.80
2018-08-04T02:35:00.644Z,23.80
2018-08-04T02:37:28.050Z,23.80
2018-08-04T02:39:55.441Z,23.70
2018-08-04T02:42:22.840Z,23.70
2018-08-04T02:44:50.164Z,23.70
2018-08-04T02:47:17.565Z,23.60
2018-08-04T02:49:44.958Z,23.50
2018-08-04T02:52:12.287Z,23.50
2018-08-04T02:54:39.757Z,23.50
2018-08-04T02:57:07.193Z,23.60
2018-08-04T02:59:34.565Z,23.70
2018-08-04T03:02:02.077Z,23.70
2018-08-04T03:04:29.517Z,23.60
2018-08-04T03:06:56.986Z,23.50
2018-08-04T03:09:24.409Z,23.50
2018-08-04T03:11:51.755Z,23.40
2018-08-04T03:14:19.202Z,23.30
2018-08-04T03:16:46.549Z,23.40
2018-08-04T03:19:13.882Z,23.40
2018-08-04T03:21:41.283Z,23.40
2018-08-04T03:24:08.633Z,23.40
2018-08-04T03:26:36.060Z,23.40
2018-08-04T03:29:03.442Z,23.30
2018-08-04T03:31:30.843Z,23.20
2018-08-04T03:33:58.358Z,23.10
2018-08-04T03:36:25.785Z,23.10
2018-08-04T03:38:53.098Z,23.10
2018-08-04T03:41:20.465Z,23.00
2018-08-04T03:43:47.881Z,22.90
2018-08-04T03:46:15.247Z,23.00
2018-08-04T03:48:42.631Z,23.00
2018-08-04T03:51:10.013Z,23.00
2018-08-04T03:53:37.386Z,22.90
2018-08-04T03:56:04.930Z,22.90
2018-08-04T03:58:32.354Z,22.90
2018-08-04T04:00:59.751Z,22.90
2018-08-04T04:03:27.188Z,22.90
2018-08-04T04:05:54.582Z,22.90
2018-08-04T04:08:22.098Z,22.90
2018-08-04T04:10:49.432Z,22.90
2018-08-04T04:13:18.121Z,22.90
2018-08-04T04:15:51.042Z,22.80
2018-08-04T04:18:18.869Z,22.80
2018-08-04T04:20:46.843Z,22.80
2018-08-04T04:23:18.394Z,22.80
2018-08-04T04:25:46.405Z,22.80
2018-08-04T04:28:14.808Z,22.80
2018-08-04T04:30:42.803Z,22.90
2018-08-04T04:33:10.336Z,22.90
2018-08-04T04:35:38.286Z,22.80
2018-08-04T04:38:06.921Z,22.80
2018-08-04T04:40:35.405Z,22.70
2018-08-04T04:43:03.140Z,22.70
2018-08-04T04:45:31.037Z,22.80
2018-08-04T04:47:59.228Z,22.80
2018-08-04T04:52:59.956Z,22.90
2018-08-04T04:55:28.245Z,22.80
2018-08-04T04:57:56.261Z,22.90
2018-08-04T05:00:24.034Z,23.00
2018-08-04T05:02:51.937Z,23.00
2018-08-04T05:05:20.802Z,23.00
2018-08-04T05:07:48.410Z,23.10
2018-08-04T05:10:34.528Z,23.10
2018-08-04T05:13:13.485Z,23.10
2018-08-04T05:15:40.804Z,23.20
2018-08-04T05:18:08.249Z,23.20
2018-08-04T05:20:35.542Z,23.30
2018-08-04T05:23:02.934Z,23.40
2018-08-04T05:25:30.310Z,23.40
2018-08-04T05:27:57.721Z,23.50
2018-08-04T05:30:25.077Z,23.60
2018-08-04T05:32:52.502Z,23.60
2018-08-04T05:35:19.904Z,23.60
2018-08-04T05:37:47.237Z,23.70
2018-08-04T05:40:14.698Z,23.80
2018-08-04T05:42:42.206Z,24.00
2018-08-04T05:45:09.925Z,24.00
2018-08-04T05:47:37.677Z,23.90
2018-08-04T05:50:05.433Z,24.00
2018-08-04T05:52:32.934Z,23.90
2018-08-04T05:55:00.323Z,23.90
2018-08-04T05:57:27.655Z,24.10
2018-08-04T05:59:55.057Z,24.00
2018-08-04T06:02:22.473Z,24.10
2018-08-04T06:04:49.989Z,24.40
2018-08-04T06:07:19.899Z,24.50
2018-08-04T06:09:47.373Z,24.60
2018-08-04T06:12:15.942Z,24.60
2018-08-04T06:14:51.947Z,24.70
2018-08-04T06:17:31.529Z,24.80
2018-08-04T06:20:02.320Z,25.00
2018-08-04T06:22:31.101Z,25.30
2018-08-04T06:24:58.562Z,25.30
2018-08-04T06:27:25.979Z,25.50
2018-08-04T06:29:53.377Z,25.70
2018-08-04T06:32:20.830Z,25.90
2018-08-04T06:34:48.268Z,26.10
2018-08-04T06:37:16.194Z,26.10
2018-08-04T06:39:43.526Z,26.10
2018-08-04T06:42:10.863Z,26.30
2018-08-04T06:44:38.287Z,26.50
2018-08-04T06:47:05.897Z,26.50
2018-08-04T06:49:33.308Z,26.60
2018-08-04T06:52:00.783Z,26.70
2018-08-04T06:54:28.278Z,26.60
2018-08-04T06:56:55.672Z,26.70
2018-08-04T06:59:23.176Z,26.80
2018-08-04T07:01:50.590Z,26.90
2018-08-04T07:04:18.016Z,26.90
2018-08-04T07:06:45.425Z,27.00
2018-08-04T07:09:12.873Z,27.10
2018-08-04T07:11:40.319Z,27.10
2018-08-04T07:14:08.189Z,27.20
2018-08-04T07:16:36.399Z,27.40
2018-08-04T07:19:04.009Z,27.60
2018-08-04T07:21:31.521Z,27.60
2018-08-04T07:23:58.988Z,27.60
2018-08-04T07:28:53.832Z,27.10
2018-08-04T07:31:21.088Z,27.00
2018-08-04T07:33:49.610Z,27.00
2018-08-04T07:36:17.021Z,27.00
2018-08-04T07:38:44.459Z,27.00
2018-08-04T07:41:11.864Z,27.00
2018-08-04T07:43:39.318Z,27.00
2018-08-04T07:46:06.787Z,27.30
2018-08-04T07:48:34.118Z,27.60
2018-08-04T07:51:01.637Z,27.90
2018-08-04T07:53:29.042Z,28.10
2018-08-04T07:55:56.497Z,28.40
2018-08-04T07:58:23.900Z,28.60
2018-08-04T08:00:51.346Z,28.60
2018-08-04T08:05:46.067Z,28.60
2018-08-04T08:08:13.558Z,28.70
2018-08-04T08:10:40.977Z,29.00
2018-08-04T08:13:08.436Z,29.30
2018-08-04T08:15:35.899Z,29.50
2018-08-04T08:18:03.261Z,29.70
2018-08-04T08:20:30.645Z,29.80
2018-08-04T08:22:58.119Z,29.90
2018-08-04T08:25:25.599Z,30.10
2018-08-04T08:30:20.331Z,30.30
2018-08-04T08:35:14.990Z,30.10
2018-08-04T08:37:42.402Z,30.00
2018-08-04T08:40:09.941Z,30.30
2018-08-04T08:42:37.579Z,30.40
2018-08-04T08:45:06.723Z,30.30
2018-08-04T08:47:34.166Z,30.40
2018-08-04T08:50:01.798Z,30.20
2018-08-04T08:52:29.171Z,30.20
2018-08-04T08:54:56.591Z,30.40
2018-08-04T08:57:23.947Z,30.60
2018-08-04T08:59:51.413Z,30.60
2018-08-04T09:02:18.793Z,30.70
2018-08-04T09:04:46.233Z,30.90
2018-08-04T09:07:13.582Z,31.10
2018-08-04T09:09:41.042Z,31.30
2018-08-04T09:12:08.538Z,31.50
2018-08-04T09:14:36.004Z,31.10
2018-08-04T09:17:03.490Z,31.00
2018-08-04T09:19:31.128Z,30.90
2018-08-04T09:21:58.621Z,30.90
2018-08-04T09:24:26.070Z,31.10
2018-08-04T09:26:53.479Z,31.30
2018-08-04T09:29:21.069Z,31.40
2018-08-04T09:31:48.441Z,31.60
2018-08-04T09:34:15.795Z,31.80
2018-08-04T09:36:43.304Z,32.00
2018-08-04T09:39:12.447Z,31.80
2018-08-04T09:41:40.826Z,31.90
2018-08-04T09:44:08.462Z,32.10
2018-08-04T09:46:36.242Z,32.10
2018-08-04T09:49:03.857Z,32.20
2018-08-04T09:51:31.211Z,32.20
2018-08-04T09:53:58.603Z,32.40
2018-08-04T09:56:26.259Z,32.30
2018-08-04T09:58:53.678Z,32.30
2018-08-04T10:01:26.813Z,32.50
2018-08-04T10:03:54.234Z,32.70
2018-08-04T10:06:21.626Z,32.80
2018-08-04T10:08:49.089Z,32.90
2018-08-04T10:11:16.561Z,32.90
2018-08-04T10:13:43.962Z,33.00
2018-08-04T10:16:11.382Z,33.10
2018-08-04T10:18:38.730Z,33.00
2018-08-04T10:21:06.226Z,33.00
2018-08-04T10:23:33.627Z,33.00
2018-08-04T10:26:01.261Z,33.30
2018-08-04T10:28:28.674Z,33.40
2018-08-04T10:30:56.035Z,33.40
2018-08-04T10:33:23.485Z,33.40
2018-08-04T10:35:50.894Z,33.10
2018-08-04T10:40:45.674Z,33.10
2018-08-04T10:43:13.101Z,33.50
2018-08-04T10:45:40.531Z,33.80
2018-08-04T10:48:08.074Z,33.80
2018-08-04T10:50:35.534Z,34.00
2018-08-04T10:53:03.022Z,33.90
2018-08-04T10:55:30.473Z,33.80
2018-08-04T10:57:57.907Z,34.00
2018-08-04T11:02:52.862Z,33.40
2018-08-04T11:05:20.287Z,33.40
2018-08-04T11:07:47.761Z,33.20
2018-08-04T11:10:15.157Z,33.00
2018-08-04T11:12:42.526Z,32.70
2018-08-04T11:15:09.950Z,32.40
2018-08-04T11:17:37.395Z,32.40
2018-08-04T11:20:04.918Z,32.40
2018-08-04T11:22:32.325Z,32.30
2018-08-04T11:24:59.816Z,32.40
2018-08-04T11:27:27.276Z,32.50
2018-08-04T11:29:54.798Z,32.60
2018-08-04T11:32:22.204Z,32.40
2018-08-04T11:34:49.755Z,32.60
2018-08-04T11:37:17.281Z,33.00
2018-08-04T11:39:44.639Z,33.40
2018-08-04T11:42:12.000Z,33.70
2018-08-04T11:44:39.459Z,34.10
2018-08-04T11:49:34.383Z,33.80
2018-08-04T11:52:01.954Z,33.90
2018-08-04T11:54:29.467Z,33.80
2018-08-04T11:56:56.956Z,33.90
2018-08-04T11:59:24.405Z,33.80
2018-08-04T12:01:51.928Z,33.70
2018-08-04T12:04:19.376Z,33.80
2018-08-04T12:06:46.741Z,34.20
2018-08-04T12:09:14.081Z,34.20
2018-08-04T12:11:41.902Z,34.40
2018-08-04T12:14:10.054Z,34.70
2018-08-04T12:16:37.694Z,34.80
2018-08-04T12:19:05.531Z,35.10
2018-08-04T12:21:33.066Z,35.20
2018-08-04T12:24:00.436Z,35.30
2018-08-04T12:26:27.846Z,34.60
2018-08-04T12:28:55.275Z,34.50
2018-08-04T12:31:22.683Z,34.60
2018-08-04T12:33:50.014Z,34.90
2018-08-04T12:36:17.840Z,35.00
2018-08-04T12:38:45.440Z,34.80
2018-08-04T12:41:12.787Z,34.30
2018-08-04T12:43:40.234Z,34.30
2018-08-04T12:46:07.659Z,34.40
2018-08-04T12:51:02.411Z,34.70
2018-08-04T12:53:29.780Z,34.40
2018-08-04T12:55:58.106Z,34.60
2018-08-04T12:58:25.664Z,34.90
2018-08-04T13:00:53.397Z,34.90
2018-08-04T13:03:21.040Z,35.00
2018-08-04T13:05:48.667Z,35.00
2018-08-04T13:08:16.170Z,34.70
2018-08-04T13:10:43.607Z,34.60
2018-08-04T13:13:11.078Z,34.50
2018-08-04T13:15:38.421Z,34.40
2018-08-04T13:18:05.826Z,34.20
2018-08-04T13:20:33.239Z,33.90
2018-08-04T13:23:00.659Z,33.90
2018-08-04T13:25:28.079Z,34.10
2018-08-04T13:27:55.484Z,34.40
2018-08-04T13:30:22.876Z,34.60
2018-08-04T13:32:50.267Z,34.40
2018-08-04T13:35:17.697Z,34.30
2018-08-04T13:37:45.068Z,34.40
2018-08-04T13:40:12.573Z,34.80
2018-08-04T13:42:40.048Z,35.10
2018-08-04T13:45:07.671Z,35.10
2018-08-04T13:47:35.079Z,35.30
2018-08-04T13:50:02.671Z,35.40
2018-08-04T13:54:57.509Z,35.60
2018-08-04T13:57:24.930Z,35.90
2018-08-04T13:59:52.319Z,35.90
2018-08-04T14:02:19.788Z,36.00
2018-08-04T14:04:47.206Z,36.10
2018-08-04T14:09:41.956Z,36.40
2018-08-04T14:12:09.415Z,36.30
2018-08-04T14:14:36.821Z,36.00
2018-08-04T14:17:04.325Z,36.20
2018-08-04T14:19:31.886Z,36.10
2018-08-04T14:21:59.246Z,36.30
2018-08-04T14:24:26.634Z,36.40
2018-08-04T14:26:53.944Z,36.50
2018-08-04T14:29:21.280Z,36.50
2018-08-04T14:31:48.673Z,36.20
2018-08-04T14:34:16.024Z,35.90
2018-08-04T14:36:43.395Z,35.40
2018-08-04T14:39:12.320Z,35.40
2018-08-04T14:41:39.807Z,35.60
2018-08-04T14:44:07.266Z,35.90
2018-08-04T14:46:35.085Z,36.00
2018-08-04T14:49:02.550Z,36.00
2018-08-04T14:51:29.980Z,36.00
2018-08-04T14:53:57.383Z,35.70
2018-08-04T14:56:24.775Z,34.90
2018-08-04T14:58:52.190Z,34.20
2018-08-04T15:01:19.646Z,33.20
2018-08-04T15:03:47.052Z,33.10
2018-08-04T15:06:14.404Z,32.80
2018-08-04T15:08:41.828Z,32.50
2018-08-04T15:11:09.204Z,32.40
2018-08-04T15:13:36.593Z,32.30
2018-08-04T15:16:04.225Z,32.40
2018-08-04T15:18:31.638Z,32.30
2018-08-04T15:20:59.051Z,32.10
2018-08-04T15:23:26.497Z,31.70
2018-08-04T15:25:53.939Z,31.60
2018-08-04T15:28:21.397Z,31.60
2018-08-04T15:30:48.759Z,31.60
2018-08-04T15:33:16.154Z,31.80
2018-08-04T15:35:43.471Z,31.70
2018-08-04T15:38:10.917Z,31.80
2018-08-04T15:40:38.324Z,31.90
2018-08-04T15:43:05.906Z,32.00
2018-08-04T15:45:33.313Z,32.00
2018-08-04T15:48:00.696Z,32.30
2018-08-04T15:52:55.423Z,32.40
2018-08-04T15:57:51.079Z,32.30
2018-08-04T16:00:18.504Z,32.30
2018-08-04T16:05:13.362Z,32.70
2018-08-04T16:07:40.767Z,32.70
2018-08-04T16:10:08.088Z,32.70
2018-08-04T16:12:35.549Z,32.60
2018-08-04T16:15:03.492Z,32.40
2018-08-04T16:17:30.867Z,32.40
2018-08-04T16:19:58.298Z,32.50
2018-08-04T16:22:25.782Z,32.60
2018-08-04T16:24:53.186Z,32.50
2018-08-04T16:27:20.528Z,31.90
2018-08-04T16:29:48.007Z,31.40
2018-08-04T16:32:15.681Z,31.40
2018-08-04T16:34:43.038Z,31.20
2018-08-04T16:37:10.440Z,31.10
2018-08-04T16:39:37.844Z,30.80
2018-08-04T16:42:05.442Z,30.60
2018-08-04T16:44:32.858Z,30.60
2018-08-04T16:47:00.256Z,30.40
2018-08-04T16:49:27.680Z,30.30
2018-08-04T16:51:55.046Z,30.20
2018-08-04T16:54:22.498Z,30.20
2018-08-04T16:56:49.906Z,30.00
2018-08-04T16:59:17.260Z,30.10
2018-08-04T17:01:44.730Z,30.10
2018-08-04T17:04:12.210Z,30.10
2018-08-04T17:06:39.655Z,30.10
2018-08-04T17:09:09.319Z,30.20
2018-08-04T17:11:36.643Z,30.20
2018-08-04T17:14:04.090Z,30.20
2018-08-04T17:16:31.575Z,30.20
2018-08-04T17:18:58.969Z,30.20
2018-08-04T17:21:26.394Z,30.20
2018-08-04T17:23:53.861Z,30.20
2018-08-04T17:26:21.190Z,30.20
2018-08-04T17:28:48.591Z,30.20
2018-08-04T17:31:16.057Z,30.30
2018-08-04T17:33:43.466Z,30.30
2018-08-04T17:36:10.948Z,30.30
2018-08-04T17:38:38.409Z,30.20
2018-08-04T17:41:05.819Z,30.20
2018-08-04T17:43:33.230Z,30.20
2018-08-04T17:46:00.632Z,30.30
2018-08-04T17:48:28.040Z,30.20
2018-08-04T17:50:55.501Z,30.20
2018-08-04T17:53:22.893Z,30.20
2018-08-04T17:55:50.251Z,30.20
2018-08-04T18:00:45.042Z,30.00
2018-08-04T18:03:12.432Z,30.00
2018-08-04T18:05:40.003Z,29.90
2018-08-04T18:08:07.365Z,29.90
2018-08-04T18:10:34.880Z,29.80
2018-08-04T18:13:02.317Z,29.80
2018-08-04T18:15:29.899Z,29.70
2018-08-04T18:17:57.375Z,29.70
2018-08-04T18:20:24.886Z,29.60
2018-08-04T18:22:52.187Z,29.50
2018-08-04T18:25:19.524Z,29.40
2018-08-04T18:30:14.416Z,29.30
2018-08-04T18:32:41.842Z,29.20
2018-08-04T18:35:09.284Z,29.10
2018-08-04T18:37:36.690Z,29.00
2018-08-04T18:40:04.159Z,28.90
2018-08-04T18:42:31.566Z,28.90
2018-08-04T18:44:59.064Z,28.80
2018-08-04T18:49:53.834Z,28.60
2018-08-04T18:52:21.282Z,28.60
2018-08-04T18:54:48.734Z,28.50
2018-08-04T18:57:16.169Z,28.30
2018-08-04T18:59:43.592Z,28.20
2018-08-04T19:02:11.057Z,28.10
2018-08-04T19:04:38.371Z,28.00
2018-08-04T19:07:05.962Z,28.00
2018-08-04T19:09:33.450Z,27.80
2018-08-04T19:12:00.836Z,27.80
2018-08-04T19:14:28.332Z,27.70
2018-08-04T19:16:55.717Z,27.60
2018-08-04T19:21:50.575Z,27.60
2018-08-04T19:24:18.137Z,27.50
2018-08-04T19:26:45.810Z,27.40
2018-08-04T19:29:13.207Z,27.30
2018-08-04T19:31:40.662Z,27.30
2018-08-04T19:34:08.086Z,27.30
2018-08-04T19:36:35.616Z,27.30
2018-08-04T19:39:04.865Z,27.30
2018-08-04T19:41:32.340Z,27.20
2018-08-04T19:43:59.804Z,27.20
2018-08-04T19:46:27.264Z,27.10
2018-08-04T19:48:54.620Z,27.10
2018-08-04T19:51:22.111Z,27.00
2018-08-04T19:53:49.526Z,27.00
2018-08-04T19:56:17.076Z,26.90
2018-08-04T20:03:48.249Z,26.80
2018-08-04T20:06:20.437Z,26.80
2018-08-04T20:09:00.569Z,26.70
2018-08-04T20:11:28.192Z,26.70
2018-08-04T20:13:55.659Z,26.70
2018-08-04T20:16:24.794Z,26.70
2018-08-04T20:18:54.017Z,26.70
2018-08-04T20:21:23.052Z,26.60
2018-08-04T20:23:51.295Z,26.50
2018-08-04T20:26:51.533Z,26.50
2018-08-04T20:29:19.066Z,26.50
2018-08-04T20:34:18.258Z,26.30
2018-08-04T20:36:46.137Z,26.30
2018-08-04T20:39:13.581Z,26.20
2018-08-04T20:41:41.136Z,26.10
2018-08-04T20:44:08.646Z,26.00
2018-08-04T20:46:36.087Z,26.00
2018-08-04T20:49:03.484Z,26.10
2018-08-04T20:51:30.973Z,26.10
2018-08-04T20:53:58.376Z,26.10
2018-08-04T20:56:25.789Z,26.10
2018-08-04T20:58:53.215Z,25.70
2018-08-04T21:02:02.902Z,25.60
2018-08-04T21:04:31.798Z,25.60
2018-08-04T21:06:59.621Z,25.40
2018-08-04T21:09:27.167Z,25.50
2018-08-04T21:11:55.506Z,25.50
2018-08-04T21:14:23.902Z,25.40
2018-08-04T21:16:52.175Z,25.40
2018-08-04T21:19:20.858Z,25.30
2018-08-04T21:21:48.376Z,25.30
2018-08-04T21:24:16.653Z,25.30
2018-08-04T21:26:44.186Z,25.30
2018-08-04T21:29:11.598Z,25.30
2018-08-04T21:31:39.155Z,25.20
2018-08-04T21:34:06.705Z,25.30
2018-08-04T21:36:34.060Z,25.20
2018-08-04T21:39:01.448Z,25.20
2018-08-04T21:41:29.342Z,25.10
2018-08-04T21:43:57.168Z,25.00
2018-08-04T21:46:24.679Z,25.10
2018-08-04T21:48:52.166Z,25.00
2018-08-04T21:51:19.609Z,25.00
2018-08-04T21:53:47.014Z,25.00
2018-08-04T21:56:14.415Z,24.90
2018-08-04T21:58:41.855Z,24.80
2018-08-04T22:01:13.111Z,24.60
2018-08-04T22:03:41.834Z,24.60
2018-08-04T22:06:09.265Z,24.60
2018-08-04T22:08:48.271Z,24.70
2018-08-04T22:11:15.947Z,24.60
2018-08-04T22:13:43.608Z,24.60
2018-08-04T22:16:11.025Z,24.60
2018-08-04T22:18:38.543Z,24.50
2018-08-04T22:21:06.069Z,24.60
2018-08-04T22:23:33.631Z,24.50
2018-08-04T22:26:01.080Z,24.60
2018-08-04T22:28:28.483Z,24.50
2018-08-04T22:30:55.848Z,24.40
2018-08-04T22:33:23.285Z,24.30
2018-08-04T22:35:51.077Z,24.20
2018-08-04T22:38:18.513Z,24.20
2018-08-04T22:40:45.887Z,24.20
2018-08-04T22:43:13.371Z,24.10
2018-08-04T22:46:11.901Z,24.10
2018-08-04T22:48:39.896Z,24.10
2018-08-04T22:51:07.287Z,24.10
2018-08-04T22:53:35.103Z,24.00
2018-08-04T22:56:02.613Z,24.00
2018-08-04T22:58:29.993Z,24.00
2018-08-04T23:00:57.663Z,23.90
2018-08-04T23:03:25.144Z,23.90
2018-08-04T23:05:52.946Z,23.90
2018-08-04T23:08:20.361Z,23.90
2018-08-04T23:10:47.845Z,23.90
2018-08-04T23:13:15.759Z,23.90
2018-08-04T23:15:43.308Z,23.90
2018-08-04T23:18:11.005Z,23.80
2018-08-04T23:20:38.533Z,23.90
2018-08-04T23:23:06.690Z,23.90
2018-08-04T23:25:34.143Z,23.90
2018-08-04T23:28:01.666Z,23.90
2018-08-04T23:30:29.127Z,23.80
2018-08-04T23:32:56.465Z,23.80
2018-08-04T23:35:25.005Z,23.80
2018-08-04T23:37:52.679Z,23.80
2018-08-04T23:40:20.614Z,23.80
2018-08-04T23:42:47.983Z,23.80
2018-08-04T23:45:15.466Z,23.60
2018-08-04T23:47:42.960Z,23.40
2018-08-04T23:50:10.481Z,23.40
2018-08-04T23:52:37.895Z,23.50
2018-08-04T23:55:05.294Z,23.50
2018-08-04T23:57:32.676Z,23.50
